Bei Facebook empfehlenBei Twitter postenGoogle plusPinterest

Das Wetter im Erzgebirge am 16.11.2016

Wetter und Klima am 16.11.2016 Holzhau im Erzgebirge (630m ü.NN)
Letzte gemessene Temperatur und Uhrzeit der Messung23:45:00 Uhr6.90 °C
Temperatur (Maximum / Höchstwert) und Uhrzeit der Messung12:30:00 Uhr8.00 °C
Temperatur (Minimum / Tiefstwert) und Uhrzeit der Messung08:00:001.90 °C
Errechneter Absolutwert der Temperaturschwankungen zwischen Tmin und Tmax des Tages6.10 K
Errechnete Tagesmitteltemperatur4.99375 °C
Gesamt - Niederschlag des Tages (in flüssiger Form)4.67 Liter / m²
Luftdruck (Maximum / Höchstwert) und Zeitpunkt der Messung00:45:00 Uhr1017.60 hPa
Luftdruck (Minimum / Tiefstwert) und Zeitpunkt der Messung23:00:00 Uhr1010.40 hPa
Errechneter Absolutwert der Luftdruckschwankungen des Tages7.20 hPa
Höchste gemessene Windgeschwindigkeit und Uhrzeit der Messung23:45:00 Uhr0.00 km/h
Errechnete Windhäufigkeit in Relation zu den Messwerten des Tages0.00000 %
Niedrigste Windkühle (Windchill) und Zeitpunkt der Messung08:00:00 Uhr1.90 °C
Taupunkt (Maximum / Höchstwert) und Uhrzeit der Messung12:30:00 Uhr7.60 °C
Taupunkt (Minimum / Tiefstwert) und Uhrzeit der Messung07:15:001.20 °C
Anzahl der automatisch eingelesenen Messwerte 96

Detaillierte Wetter- und Klima- Messwerte für den 16.11.2016 in Holzhau im Erzgebirge (630m ü.NN)
ZeitTemperaturLuftdruckRel. LuftfeuchteWindWindrichtungWindchillTaupunktNiederschlag l/m²
23:45:006.90 °C1010.60 hPa97.00 %6.50 °C4.67
23:30:006.90 °C1010.50 hPa97.00 %6.50 °C4.67
23:15:006.80 °C1010.50 hPa97.00 %6.40 °C4.67
23:00:006.80 °C1010.40 hPa97.00 %6.40 °C4.67
22:45:006.80 °C1010.50 hPa97.00 %6.40 °C4.67
22:30:006.80 °C1010.50 hPa97.00 %6.40 °C4.67
22:15:006.80 °C1010.40 hPa97.00 %6.40 °C4.67
22:00:006.80 °C1010.50 hPa97.00 %6.40 °C4.67
21:45:006.50 °C1010.40 hPa97.00 %6.10 °C4.67
21:30:006.50 °C1010.50 hPa97.00 %6.10 °C4.67
21:15:006.60 °C1010.70 hPa97.00 %6.20 °C4.67
21:00:006.70 °C1010.60 hPa97.00 %6.30 °C4.67
20:45:006.60 °C1010.80 hPa97.00 %6.20 °C4.67
20:30:006.60 °C1010.80 hPa97.00 %6.20 °C4.67
20:15:006.60 °C1010.90 hPa97.00 %6.20 °C4.67
20:00:006.60 °C1011.10 hPa97.00 %6.20 °C4.67
19:45:006.60 °C1010.80 hPa97.00 %6.20 °C4.67
19:30:006.60 °C1011.10 hPa97.00 %6.20 °C4.67
19:15:006.60 °C1011.20 hPa97.00 %6.20 °C4.67
19:00:006.60 °C1011.30 hPa97.00 %6.20 °C4.67
18:45:006.50 °C1011.20 hPa97.00 %6.10 °C4.67
18:30:006.60 °C1011.20 hPa97.00 %6.20 °C4.67
18:15:006.70 °C1011.20 hPa97.00 %6.30 °C4.67
18:00:006.70 °C1011.20 hPa97.00 %6.30 °C4.67
17:45:006.70 °C1011.20 hPa97.00 %6.30 °C4.67
17:30:006.70 °C1011.20 hPa97.00 %6.30 °C4.67
17:15:006.80 °C1011.30 hPa97.00 %6.40 °C4.67
17:00:006.90 °C1011.30 hPa97.00 %6.50 °C4.67
16:45:006.90 °C1011.50 hPa97.00 %6.50 °C4.67
16:30:006.90 °C1011.20 hPa97.00 %6.50 °C4.67
16:15:006.90 °C1011.20 hPa96.00 %6.30 °C4.15
16:00:006.90 °C1011.30 hPa96.00 %6.30 °C4.15
15:45:006.90 °C1011.30 hPa96.00 %6.30 °C4.15
15:30:006.90 °C1011.40 hPa96.00 %6.30 °C3.63
15:15:006.90 °C1011.40 hPa96.00 %6.30 °C3.63
15:00:006.90 °C1011.40 hPa96.00 %6.30 °C3.63
14:45:006.80 °C1011.40 hPa96.00 %6.20 °C3.63
14:30:006.50 °C1011.50 hPa96.00 %5.90 °C3.63
14:15:006.30 °C1011.70 hPa96.00 %5.70 °C3.63
14:00:006.40 °C1011.90 hPa96.00 %5.80 °C3.63
13:45:006.90 °C1012.00 hPa96.00 %6.30 °C3.63
13:30:007.20 °C1012.30 hPa96.00 %6.60 °C3.63
13:15:007.30 °C1012.40 hPa96.00 %6.70 °C3.63
13:00:007.60 °C1012.60 hPa96.00 %7.00 °C3.63
12:45:007.80 °C1012.70 hPa96.00 %7.20 °C3.63
12:30:008.00 °C1012.70 hPa97.00 %7.60 °C3.63
12:15:007.70 °C1012.80 hPa97.00 %7.30 °C3.63
12:00:007.00 °C1013.10 hPa97.00 %6.60 °C3.63
11:45:007.00 °C1013.40 hPa96.00 %6.40 °C3.63
11:30:007.30 °C1013.50 hPa97.00 %6.90 °C3.63
11:15:007.20 °C1014.00 hPa97.00 %6.80 °C3.63
11:00:006.90 °C1014.10 hPa97.00 %6.50 °C3.63
10:45:006.40 °C1014.10 hPa97.00 %6.00 °C3.63
10:30:005.90 °C1014.10 hPa97.00 %5.50 °C3.63
10:15:005.30 °C1014.30 hPa96.00 %4.70 °C3.63
10:00:004.60 °C1014.60 hPa96.00 %4.00 °C3.63
09:45:004.20 °C1014.80 hPa96.00 %3.60 °C3.63
09:30:003.50 °C1014.90 hPa96.00 %2.90 °C3.63
09:15:002.90 °C1015.10 hPa96.00 %2.30 °C3.63
09:00:002.50 °C1015.30 hPa96.00 %1.90 °C3.63
08:45:002.20 °C1015.50 hPa96.00 %1.60 °C3.63
08:30:002.10 °C1015.60 hPa96.00 %1.50 °C3.63
08:15:002.00 °C1015.80 hPa96.00 %1.40 °C3.63
08:00:001.90 °C1015.70 hPa96.00 %1.30 °C3.63
07:45:001.90 °C1015.70 hPa96.00 %1.30 °C3.63
07:30:001.90 °C1015.60 hPa96.00 %1.30 °C3.63
07:15:001.90 °C1015.70 hPa95.00 %1.20 °C3.63
07:00:001.90 °C1016.00 hPa95.00 %1.20 °C3.63
06:45:001.90 °C1015.90 hPa95.00 %1.20 °C3.11
06:30:001.90 °C1015.90 hPa95.00 %1.20 °C3.11
06:15:001.90 °C1015.80 hPa95.00 %1.20 °C3.11
06:00:001.90 °C1015.90 hPa95.00 %1.20 °C3.11
05:45:001.90 °C1015.80 hPa95.00 %1.20 °C3.11
05:30:001.90 °C1016.00 hPa95.00 %1.20 °C3.11
05:15:001.90 °C1016.00 hPa95.00 %1.20 °C3.11
05:00:002.10 °C1016.10 hPa96.00 %1.50 °C3.11
04:45:001.90 °C1016.20 hPa95.00 %1.20 °C2.59
04:30:001.90 °C1016.10 hPa95.00 %1.20 °C2.59
04:15:001.90 °C1016.10 hPa95.00 %1.20 °C2.59
04:00:002.10 °C1016.30 hPa96.00 %1.50 °C2.59
03:45:002.20 °C1016.70 hPa96.00 %1.60 °C2.59
03:30:002.40 °C1016.80 hPa96.00 %1.80 °C2.59
03:15:002.70 °C1016.80 hPa95.00 %2.00 °C2.59
03:00:002.90 °C1016.90 hPa95.00 %2.20 °C2.59
02:45:003.20 °C1017.00 hPa96.00 %2.60 °C2.59
02:30:003.20 °C1017.10 hPa95.00 %2.50 °C2.08
02:15:003.30 °C1017.20 hPa95.00 %2.60 °C2.08
02:00:003.30 °C1017.40 hPa95.00 %2.60 °C1.56
01:45:003.30 °C1017.40 hPa95.00 %2.60 °C1.56
01:30:003.30 °C1017.40 hPa95.00 %2.60 °C1.56
01:15:003.30 °C1017.30 hPa95.00 %2.60 °C1.04
01:00:003.20 °C1017.10 hPa95.00 %2.50 °C0.52
00:45:003.10 °C1017.60 hPa95.00 %2.40 °C0.52
00:30:003.10 °C1017.50 hPa95.00 %2.40 °C0.52
00:15:003.10 °C1017.50 hPa95.00 %2.40 °C 
00:00:003.10 °C1017.50 hPa95.00 %2.40 °C 

Permanenter Link zu dieser Seite: Wetter im Erzgebirge am 16.11.2016
Performance-Info: Die Erstellung der Seite / Statistik(en) / Tabelle(n) erforderte 5 Datenbankserver-Abfrage(n) und dauerte 102 Millisekunden. (Dieser Messwert ist von der Gesamt-Auslastung des Servers abhängig.)
Erzgebirge - Wetter | Erzgebirge - Wetter (Mobilgeräte) | Komplette Klimadatenbank